sensor_id;sensor_type;location;lat;lon;timestamp;temperature;humidity
45693;DHT22;31402;44.752;-0.374;2022-09-14T00:00:51;26.20;85.70
45693;DHT22;31402;44.752;-0.374;2022-09-14T00:03:17;26.30;87.00
45693;DHT22;31402;44.752;-0.374;2022-09-14T00:05:44;26.20;86.50
45693;DHT22;31402;44.752;-0.374;2022-09-14T00:08:10;26.30;86.40
45693;DHT22;31402;44.752;-0.374;2022-09-14T00:10:43;26.10;85.80
45693;DHT22;31402;44.752;-0.374;2022-09-14T00:13:12;25.90;87.90
45693;DHT22;31402;44.752;-0.374;2022-09-14T00:15:39;25.90;87.80
45693;DHT22;31402;44.752;-0.374;2022-09-14T00:18:08;26.00;87.10
45693;DHT22;31402;44.752;-0.374;2022-09-14T00:20:35;25.90;86.60
45693;DHT22;31402;44.752;-0.374;2022-09-14T00:23:01;25.90;87.10
45693;DHT22;31402;44.752;-0.374;2022-09-14T00:25:27;26.00;86.90
45693;DHT22;31402;44.752;-0.374;2022-09-14T00:27:54;26.00;86.30
45693;DHT22;31402;44.752;-0.374;2022-09-14T00:30:21;25.80;86.40
45693;DHT22;31402;44.752;-0.374;2022-09-14T00:32:48;25.50;88.40
45693;DHT22;31402;44.752;-0.374;2022-09-14T00:35:14;25.40;88.80
45693;DHT22;31402;44.752;-0.374;2022-09-14T00:37:41;25.50;88.50
45693;DHT22;31402;44.752;-0.374;2022-09-14T00:40:08;25.40;88.50
45693;DHT22;31402;44.752;-0.374;2022-09-14T00:42:35;25.40;88.70
45693;DHT22;31402;44.752;-0.374;2022-09-14T00:45:21;25.40;89.00
45693;DHT22;31402;44.752;-0.374;2022-09-14T00:47:48;25.50;88.80
45693;DHT22;31402;44.752;-0.374;2022-09-14T00:50:16;25.50;87.50
45693;DHT22;31402;44.752;-0.374;2022-09-14T00:52:44;25.20;88.10
45693;DHT22;31402;44.752;-0.374;2022-09-14T00:55:14;25.20;89.30
45693;DHT22;31402;44.752;-0.374;2022-09-14T00:57:44;25.20;88.70
45693;DHT22;31402;44.752;-0.374;2022-09-14T01:00:12;25.10;88.70
45693;DHT22;31402;44.752;-0.374;2022-09-14T01:02:39;25.20;90.10
45693;DHT22;31402;44.752;-0.374;2022-09-14T01:05:05;25.10;89.00
45693;DHT22;31402;44.752;-0.374;2022-09-14T01:07:46;25.10;89.40
45693;DHT22;31402;44.752;-0.374;2022-09-14T01:13:13;25.30;89.30
45693;DHT22;31402;44.752;-0.374;2022-09-14T01:18:51;25.50;88.40
45693;DHT22;31402;44.752;-0.374;2022-09-14T01:21:25;25.60;89.60
45693;DHT22;31402;44.752;-0.374;2022-09-14T01:23:55;25.50;88.80
45693;DHT22;31402;44.752;-0.374;2022-09-14T01:29:36;25.40;89.30
45693;DHT22;31402;44.752;-0.374;2022-09-14T01:32:19;25.60;88.80
45693;DHT22;31402;44.752;-0.374;2022-09-14T01:43:08;25.60;88.60
45693;DHT22;31402;44.752;-0.374;2022-09-14T01:45:38;25.60;88.20
45693;DHT22;31402;44.752;-0.374;2022-09-14T01:48:08;25.20;87.60
45693;DHT22;31402;44.752;-0.374;2022-09-14T01:50:41;24.90;90.00
45693;DHT22;31402;44.752;-0.374;2022-09-14T01:55:54;25.00;89.70
45693;DHT22;31402;44.752;-0.374;2022-09-14T02:00:52;25.00;89.80
45693;DHT22;31402;44.752;-0.374;2022-09-14T02:03:28;25.10;90.00
45693;DHT22;31402;44.752;-0.374;2022-09-14T02:05:56;25.10;89.60
45693;DHT22;31402;44.752;-0.374;2022-09-14T02:08:28;25.20;89.40
45693;DHT22;31402;44.752;-0.374;2022-09-14T02:10:55;25.10;89.40
45693;DHT22;31402;44.752;-0.374;2022-09-14T02:13:23;25.10;89.70
45693;DHT22;31402;44.752;-0.374;2022-09-14T02:15:49;25.20;89.20
45693;DHT22;31402;44.752;-0.374;2022-09-14T02:18:15;25.10;89.50
45693;DHT22;31402;44.752;-0.374;2022-09-14T02:20:53;25.10;89.60
45693;DHT22;31402;44.752;-0.374;2022-09-14T02:23:21;25.10;89.30
45693;DHT22;31402;44.752;-0.374;2022-09-14T02:25:47;25.10;89.80
45693;DHT22;31402;44.752;-0.374;2022-09-14T02:28:12;25.10;90.00
45693;DHT22;31402;44.752;-0.374;2022-09-14T02:34:06;25.00;88.50
45693;DHT22;31402;44.752;-0.374;2022-09-14T02:37:38;24.70;88.50
45693;DHT22;31402;44.752;-0.374;2022-09-14T02:57:02;24.50;90.10
45693;DHT22;31402;44.752;-0.374;2022-09-14T02:59:29;24.60;90.00
45693;DHT22;31402;44.752;-0.374;2022-09-14T03:01:55;24.40;90.30
45693;DHT22;31402;44.752;-0.374;2022-09-14T03:04:21;24.40;90.10
45693;DHT22;31402;44.752;-0.374;2022-09-14T03:06:47;24.20;90.10
45693;DHT22;31402;44.752;-0.374;2022-09-14T03:09:13;24.20;90.60
45693;DHT22;31402;44.752;-0.374;2022-09-14T03:11:39;24.30;90.30
45693;DHT22;31402;44.752;-0.374;2022-09-14T03:14:04;24.00;90.60
45693;DHT22;31402;44.752;-0.374;2022-09-14T03:16:30;24.00;90.60
45693;DHT22;31402;44.752;-0.374;2022-09-14T03:18:56;23.80;90.90
45693;DHT22;31402;44.752;-0.374;2022-09-14T03:21:22;23.70;91.20
45693;DHT22;31402;44.752;-0.374;2022-09-14T03:23:50;23.50;91.40
45693;DHT22;31402;44.752;-0.374;2022-09-14T03:26:19;23.70;91.60
45693;DHT22;31402;44.752;-0.374;2022-09-14T03:28:52;23.90;91.40
45693;DHT22;31402;44.752;-0.374;2022-09-14T03:31:19;24.10;91.00
45693;DHT22;31402;44.752;-0.374;2022-09-14T03:33:45;24.00;91.00
45693;DHT22;31402;44.752;-0.374;2022-09-14T03:36:15;24.10;90.80
45693;DHT22;31402;44.752;-0.374;2022-09-14T03:38:45;24.00;91.00
45693;DHT22;31402;44.752;-0.374;2022-09-14T03:41:13;24.00;91.00
45693;DHT22;31402;44.752;-0.374;2022-09-14T03:43:39;24.00;91.10
45693;DHT22;31402;44.752;-0.374;2022-09-14T03:46:07;23.80;91.20
45693;DHT22;31402;44.752;-0.374;2022-09-14T03:48:33;23.90;91.40
45693;DHT22;31402;44.752;-0.374;2022-09-14T03:51:00;24.10;91.30
45693;DHT22;31402;44.752;-0.374;2022-09-14T03:53:26;24.20;91.20
45693;DHT22;31402;44.752;-0.374;2022-09-14T03:55:52;24.00;91.20
45693;DHT22;31402;44.752;-0.374;2022-09-14T03:58:18;24.10;91.30
45693;DHT22;31402;44.752;-0.374;2022-09-14T04:00:44;24.00;91.40
45693;DHT22;31402;44.752;-0.374;2022-09-14T04:03:09;23.80;91.70
45693;DHT22;31402;44.752;-0.374;2022-09-14T04:05:36;23.90;91.70
45693;DHT22;31402;44.752;-0.374;2022-09-14T04:08:02;23.80;91.80
45693;DHT22;31402;44.752;-0.374;2022-09-14T04:10:28;23.50;92.10
45693;DHT22;31402;44.752;-0.374;2022-09-14T04:12:53;23.40;92.40
45693;DHT22;31402;44.752;-0.374;2022-09-14T04:15:19;23.30;92.50
45693;DHT22;31402;44.752;-0.374;2022-09-14T04:17:45;23.40;92.50
45693;DHT22;31402;44.752;-0.374;2022-09-14T04:20:12;23.40;92.50
45693;DHT22;31402;44.752;-0.374;2022-09-14T04:22:37;23.60;92.40
45693;DHT22;31402;44.752;-0.374;2022-09-14T04:25:04;23.70;92.30
45693;DHT22;31402;44.752;-0.374;2022-09-14T04:27:30;23.80;92.00
45693;DHT22;31402;44.752;-0.374;2022-09-14T04:29:56;23.90;91.90
45693;DHT22;31402;44.752;-0.374;2022-09-14T04:32:21;24.20;91.60
45693;DHT22;31402;44.752;-0.374;2022-09-14T04:34:48;24.00;91.70
45693;DHT22;31402;44.752;-0.374;2022-09-14T04:37:14;24.10;91.80
45693;DHT22;31402;44.752;-0.374;2022-09-14T04:39:40;23.80;92.00
45693;DHT22;31402;44.752;-0.374;2022-09-14T04:42:07;23.60;92.30
45693;DHT22;31402;44.752;-0.374;2022-09-14T04:44:32;23.60;92.40
45693;DHT22;31402;44.752;-0.374;2022-09-14T04:46:58;23.40;92.80
45693;DHT22;31402;44.752;-0.374;2022-09-14T04:49:24;23.30;92.80
45693;DHT22;31402;44.752;-0.374;2022-09-14T04:51:50;23.20;93.10
45693;DHT22;31402;44.752;-0.374;2022-09-14T04:54:16;23.20;93.20
45693;DHT22;31402;44.752;-0.374;2022-09-14T04:56:43;23.50;93.10
45693;DHT22;31402;44.752;-0.374;2022-09-14T04:59:10;23.70;92.70
45693;DHT22;31402;44.752;-0.374;2022-09-14T05:01:41;23.70;92.50
45693;DHT22;31402;44.752;-0.374;2022-09-14T05:04:08;23.80;92.50
45693;DHT22;31402;44.752;-0.374;2022-09-14T05:06:37;23.90;92.40
45693;DHT22;31402;44.752;-0.374;2022-09-14T05:09:05;24.00;92.30
45693;DHT22;31402;44.752;-0.374;2022-09-14T05:11:33;24.10;92.10
45693;DHT22;31402;44.752;-0.374;2022-09-14T05:13:59;24.10;92.20
45693;DHT22;31402;44.752;-0.374;2022-09-14T05:16:27;24.10;92.00
45693;DHT22;31402;44.752;-0.374;2022-09-14T05:18:55;23.70;92.20
45693;DHT22;31402;44.752;-0.374;2022-09-14T05:21:22;23.60;92.60
45693;DHT22;31402;44.752;-0.374;2022-09-14T05:23:53;23.60;92.70
45693;DHT22;31402;44.752;-0.374;2022-09-14T05:26:19;23.50;92.90
45693;DHT22;31402;44.752;-0.374;2022-09-14T05:28:49;23.30;93.20
45693;DHT22;31402;44.752;-0.374;2022-09-14T05:31:15;23.30;93.40
45693;DHT22;31402;44.752;-0.374;2022-09-14T05:33:41;23.30;93.30
45693;DHT22;31402;44.752;-0.374;2022-09-14T05:36:08;23.40;93.30
45693;DHT22;31402;44.752;-0.374;2022-09-14T05:38:35;23.50;93.00
45693;DHT22;31402;44.752;-0.374;2022-09-14T05:41:02;23.60;92.80
45693;DHT22;31402;44.752;-0.374;2022-09-14T05:43:28;23.80;92.60
45693;DHT22;31402;44.752;-0.374;2022-09-14T05:45:54;24.00;92.40
45693;DHT22;31402;44.752;-0.374;2022-09-14T05:48:20;24.00;92.20
45693;DHT22;31402;44.752;-0.374;2022-09-14T05:50:46;24.10;92.20
45693;DHT22;31402;44.752;-0.374;2022-09-14T05:53:12;24.10;92.20
45693;DHT22;31402;44.752;-0.374;2022-09-14T05:55:38;24.00;92.10
45693;DHT22;31402;44.752;-0.374;2022-09-14T05:58:03;23.80;92.20
45693;DHT22;31402;44.752;-0.374;2022-09-14T06:00:30;23.70;92.40
45693;DHT22;31402;44.752;-0.374;2022-09-14T06:02:56;23.60;92.50
45693;DHT22;31402;44.752;-0.374;2022-09-14T06:05:22;23.60;92.60
45693;DHT22;31402;44.752;-0.374;2022-09-14T06:07:52;23.70;92.50
45693;DHT22;31402;44.752;-0.374;2022-09-14T06:10:19;24.70;92.10
45693;DHT22;31402;44.752;-0.374;2022-09-14T06:12:45;25.30;90.80
45693;DHT22;31402;44.752;-0.374;2022-09-14T06:15:11;25.60;90.80
45693;DHT22;31402;44.752;-0.374;2022-09-14T06:17:37;25.50;90.90
45693;DHT22;31402;44.752;-0.374;2022-09-14T06:20:03;25.20;90.70
45693;DHT22;31402;44.752;-0.374;2022-09-14T06:22:30;25.00;91.00
45693;DHT22;31402;44.752;-0.374;2022-09-14T06:24:56;26.40;90.00
45693;DHT22;31402;44.752;-0.374;2022-09-14T06:27:22;27.50;87.30
45693;DHT22;31402;44.752;-0.374;2022-09-14T06:29:48;28.60;85.10
45693;DHT22;31402;44.752;-0.374;2022-09-14T06:32:19;29.10;84.30
45693;DHT22;31402;44.752;-0.374;2022-09-14T06:34:47;29.50;82.70
45693;DHT22;31402;44.752;-0.374;2022-09-14T06:37:13;29.60;81.70
45693;DHT22;31402;44.752;-0.374;2022-09-14T06:39:39;29.10;81.70
45693;DHT22;31402;44.752;-0.374;2022-09-14T06:42:04;28.60;84.80
45693;DHT22;31402;44.752;-0.374;2022-09-14T06:44:31;28.00;85.80
45693;DHT22;31402;44.752;-0.374;2022-09-14T06:46:56;27.20;86.50
45693;DHT22;31402;44.752;-0.374;2022-09-14T06:49:22;26.70;89.30
45693;DHT22;31402;44.752;-0.374;2022-09-14T06:51:49;26.30;90.50
45693;DHT22;31402;44.752;-0.374;2022-09-14T06:54:20;25.90;90.50
45693;DHT22;31402;44.752;-0.374;2022-09-14T06:56:46;25.80;90.60
45693;DHT22;31402;44.752;-0.374;2022-09-14T06:59:13;25.80;90.70
45693;DHT22;31402;44.752;-0.374;2022-09-14T07:01:41;25.80;90.40
45693;DHT22;31402;44.752;-0.374;2022-09-14T07:04:07;26.00;90.30
45693;DHT22;31402;44.752;-0.374;2022-09-14T07:06:45;26.20;90.10
45693;DHT22;31402;44.752;-0.374;2022-09-14T07:09:12;26.40;90.10
45693;DHT22;31402;44.752;-0.374;2022-09-14T07:11:38;26.40;89.60
45693;DHT22;31402;44.752;-0.374;2022-09-14T07:14:05;26.20;90.00
45693;DHT22;31402;44.752;-0.374;2022-09-14T07:16:32;26.10;90.00
45693;DHT22;31402;44.752;-0.374;2022-09-14T07:19:00;26.00;90.30
45693;DHT22;31402;44.752;-0.374;2022-09-14T07:21:27;26.10;90.00
45693;DHT22;31402;44.752;-0.374;2022-09-14T07:23:53;26.20;89.30
45693;DHT22;31402;44.752;-0.374;2022-09-14T07:26:31;26.30;90.00
45693;DHT22;31402;44.752;-0.374;2022-09-14T07:28:59;26.20;89.80
45693;DHT22;31402;44.752;-0.374;2022-09-14T07:31:28;26.20;90.10
45693;DHT22;31402;44.752;-0.374;2022-09-14T07:33:59;26.10;88.20
45693;DHT22;31402;44.752;-0.374;2022-09-14T07:36:27;26.10;89.50
45693;DHT22;31402;44.752;-0.374;2022-09-14T07:38:53;26.20;88.10
45693;DHT22;31402;44.752;-0.374;2022-09-14T07:41:25;26.30;88.00
45693;DHT22;31402;44.752;-0.374;2022-09-14T07:43:53;26.40;88.30
45693;DHT22;31402;44.752;-0.374;2022-09-14T07:46:20;26.30;88.30
45693;DHT22;31402;44.752;-0.374;2022-09-14T07:48:46;26.30;88.80
45693;DHT22;31402;44.752;-0.374;2022-09-14T07:51:13;26.30;86.50
45693;DHT22;31402;44.752;-0.374;2022-09-14T07:53:41;26.00;87.60
45693;DHT22;31402;44.752;-0.374;2022-09-14T07:56:09;26.30;87.60
45693;DHT22;31402;44.752;-0.374;2022-09-14T07:58:35;26.10;88.30
45693;DHT22;31402;44.752;-0.374;2022-09-14T08:01:04;26.20;88.00
45693;DHT22;31402;44.752;-0.374;2022-09-14T08:03:33;26.20;86.90
45693;DHT22;31402;44.752;-0.374;2022-09-14T08:06:07;26.40;87.90
45693;DHT22;31402;44.752;-0.374;2022-09-14T08:08:35;26.20;88.00
45693;DHT22;31402;44.752;-0.374;2022-09-14T08:11:08;25.90;88.70
45693;DHT22;31402;44.752;-0.374;2022-09-14T08:13:37;25.90;88.30
45693;DHT22;31402;44.752;-0.374;2022-09-14T08:16:03;25.90;89.00
45693;DHT22;31402;44.752;-0.374;2022-09-14T08:18:31;25.70;89.20
45693;DHT22;31402;44.752;-0.374;2022-09-14T08:21:05;25.60;89.80
45693;DHT22;31402;44.752;-0.374;2022-09-14T08:23:33;25.70;89.70
45693;DHT22;31402;44.752;-0.374;2022-09-14T08:26:12;25.30;90.40
45693;DHT22;31402;44.752;-0.374;2022-09-14T08:28:39;25.30;90.20
45693;DHT22;31402;44.752;-0.374;2022-09-14T08:31:10;25.40;90.50
45693;DHT22;31402;44.752;-0.374;2022-09-14T08:33:39;25.50;89.60
45693;DHT22;31402;44.752;-0.374;2022-09-14T08:36:06;25.50;90.00
45693;DHT22;31402;44.752;-0.374;2022-09-14T08:38:34;25.50;90.10
45693;DHT22;31402;44.752;-0.374;2022-09-14T08:41:15;25.60;90.20
45693;DHT22;31402;44.752;-0.374;2022-09-14T08:43:43;25.80;90.50
45693;DHT22;31402;44.752;-0.374;2022-09-14T08:46:34;25.90;88.70
45693;DHT22;31402;44.752;-0.374;2022-09-14T08:49:01;25.90;89.10
45693;DHT22;31402;44.752;-0.374;2022-09-14T08:51:28;25.70;90.00
45693;DHT22;31402;44.752;-0.374;2022-09-14T08:53:56;25.80;89.80
45693;DHT22;31402;44.752;-0.374;2022-09-14T08:56:31;25.70;89.30
45693;DHT22;31402;44.752;-0.374;2022-09-14T08:59:16;25.60;90.20
45693;DHT22;31402;44.752;-0.374;2022-09-14T09:07:56;25.80;89.00
45693;DHT22;31402;44.752;-0.374;2022-09-14T09:10:26;26.00;88.70
45693;DHT22;31402;44.752;-0.374;2022-09-14T09:12:55;25.90;88.20
45693;DHT22;31402;44.752;-0.374;2022-09-14T09:15:29;26.00;88.00
45693;DHT22;31402;44.752;-0.374;2022-09-14T09:18:00;26.20;87.70
45693;DHT22;31402;44.752;-0.374;2022-09-14T09:20:32;26.60;88.60
45693;DHT22;31402;44.752;-0.374;2022-09-14T09:23:16;26.90;87.50
45693;DHT22;31402;44.752;-0.374;2022-09-14T09:28:51;27.60;83.50
45693;DHT22;31402;44.752;-0.374;2022-09-14T09:31:20;27.80;81.80
45693;DHT22;31402;44.752;-0.374;2022-09-14T09:33:48;27.90;81.30
45693;DHT22;31402;44.752;-0.374;2022-09-14T09:36:15;28.00;80.30
45693;DHT22;31402;44.752;-0.374;2022-09-14T09:38:41;28.00;80.40
45693;DHT22;31402;44.752;-0.374;2022-09-14T09:41:28;28.10;81.70
45693;DHT22;31402;44.752;-0.374;2022-09-14T09:44:08;28.40;76.80
45693;DHT22;31402;44.752;-0.374;2022-09-14T09:46:45;28.60;80.00
45693;DHT22;31402;44.752;-0.374;2022-09-14T09:49:34;28.70;76.10
45693;DHT22;31402;44.752;-0.374;2022-09-14T09:52:12;28.80;80.10
45693;DHT22;31402;44.752;-0.374;2022-09-14T09:54:41;28.90;75.40
45693;DHT22;31402;44.752;-0.374;2022-09-14T09:57:32;29.00;77.30
45693;DHT22;31402;44.752;-0.374;2022-09-14T10:00:09;29.30;76.60
45693;DHT22;31402;44.752;-0.374;2022-09-14T10:02:36;29.50;73.80
45693;DHT22;31402;44.752;-0.374;2022-09-14T10:10:16;29.80;72.00
45693;DHT22;31402;44.752;-0.374;2022-09-14T10:12:49;29.80;72.20
45693;DHT22;31402;44.752;-0.374;2022-09-14T10:15:36;29.80;73.00
45693;DHT22;31402;44.752;-0.374;2022-09-14T10:25:46;30.40;71.50
45693;DHT22;31402;44.752;-0.374;2022-09-14T10:28:32;30.40;69.10
45693;DHT22;31402;44.752;-0.374;2022-09-14T10:31:11;30.20;69.10
45693;DHT22;31402;44.752;-0.374;2022-09-14T10:33:37;30.30;70.30
45693;DHT22;31402;44.752;-0.374;2022-09-14T10:39:49;30.20;70.60
45693;DHT22;31402;44.752;-0.374;2022-09-14T10:47:40;30.10;68.50
45693;DHT22;31402;44.752;-0.374;2022-09-14T11:07:36;30.50;74.20
45693;DHT22;31402;44.752;-0.374;2022-09-14T11:10:27;30.90;72.30
45693;DHT22;31402;44.752;-0.374;2022-09-14T11:15:53;31.50;70.00
45693;DHT22;31402;44.752;-0.374;2022-09-14T11:18:31;31.70;67.60
45693;DHT22;31402;44.752;-0.374;2022-09-14T11:23:47;31.70;67.30
45693;DHT22;31402;44.752;-0.374;2022-09-14T11:26:15;31.70;65.00
45693;DHT22;31402;44.752;-0.374;2022-09-14T11:28:54;31.60;65.80
45693;DHT22;31402;44.752;-0.374;2022-09-14T11:31:36;31.40;64.10
45693;DHT22;31402;44.752;-0.374;2022-09-14T11:37:21;31.30;63.60
45693;DHT22;31402;44.752;-0.374;2022-09-14T11:39:57;31.20;65.70
45693;DHT22;31402;44.752;-0.374;2022-09-14T11:42:29;31.10;62.90
45693;DHT22;31402;44.752;-0.374;2022-09-14T11:45:02;31.10;65.20
45693;DHT22;31402;44.752;-0.374;2022-09-14T11:47:36;31.10;64.90
45693;DHT22;31402;44.752;-0.374;2022-09-14T11:50:23;31.10;65.80
45693;DHT22;31402;44.752;-0.374;2022-09-14T11:53:02;31.20;64.00
45693;DHT22;31402;44.752;-0.374;2022-09-14T11:55:28;31.40;63.40
45693;DHT22;31402;44.752;-0.374;2022-09-14T11:57:55;31.60;63.60
45693;DHT22;31402;44.752;-0.374;2022-09-14T12:05:28;31.50;62.10
45693;DHT22;31402;44.752;-0.374;2022-09-14T12:08:00;31.60;62.40
45693;DHT22;31402;44.752;-0.374;2022-09-14T12:10:27;31.70;62.30
45693;DHT22;31402;44.752;-0.374;2022-09-14T12:18:13;31.90;63.60
45693;DHT22;31402;44.752;-0.374;2022-09-14T12:20:49;31.90;60.80
45693;DHT22;31402;44.752;-0.374;2022-09-14T12:36:09;31.80;62.90
45693;DHT22;31402;44.752;-0.374;2022-09-14T12:46:09;31.60;62.10
45693;DHT22;31402;44.752;-0.374;2022-09-14T12:49:02;31.60;63.50
45693;DHT22;31402;44.752;-0.374;2022-09-14T12:51:46;31.80;63.80
45693;DHT22;31402;44.752;-0.374;2022-09-14T12:54:27;31.70;63.60
45693;DHT22;31402;44.752;-0.374;2022-09-14T13:05:34;31.60;61.40
45693;DHT22;31402;44.752;-0.374;2022-09-14T13:08:06;31.70;64.20
45693;DHT22;31402;44.752;-0.374;2022-09-14T13:10:36;31.70;63.80
45693;DHT22;31402;44.752;-0.374;2022-09-14T13:13:11;31.80;62.70
45693;DHT22;31402;44.752;-0.374;2022-09-14T13:15:49;32.00;62.90
45693;DHT22;31402;44.752;-0.374;2022-09-14T13:20:58;32.00;62.20
45693;DHT22;31402;44.752;-0.374;2022-09-14T13:23:31;31.90;62.70
45693;DHT22;31402;44.752;-0.374;2022-09-14T13:25:58;32.00;63.30
45693;DHT22;31402;44.752;-0.374;2022-09-14T13:28:28;32.00;62.20
45693;DHT22;31402;44.752;-0.374;2022-09-14T13:30:59;31.80;62.70
45693;DHT22;31402;44.752;-0.374;2022-09-14T13:33:29;31.80;62.30
45693;DHT22;31402;44.752;-0.374;2022-09-14T13:35:59;31.70;63.10
45693;DHT22;31402;44.752;-0.374;2022-09-14T13:38:29;31.50;63.70
45693;DHT22;31402;44.752;-0.374;2022-09-14T13:41:03;31.50;63.90
45693;DHT22;31402;44.752;-0.374;2022-09-14T13:43:30;31.50;64.80
45693;DHT22;31402;44.752;-0.374;2022-09-14T13:45:56;31.50;65.10
45693;DHT22;31402;44.752;-0.374;2022-09-14T13:48:22;31.40;64.40
45693;DHT22;31402;44.752;-0.374;2022-09-14T13:50:50;31.40;63.90
45693;DHT22;31402;44.752;-0.374;2022-09-14T13:56:26;31.30;62.10
45693;DHT22;31402;44.752;-0.374;2022-09-14T14:01:56;31.10;64.20
45693;DHT22;31402;44.752;-0.374;2022-09-14T14:04:46;31.10;64.20
45693;DHT22;31402;44.752;-0.374;2022-09-14T14:09:52;30.90;66.20
45693;DHT22;31402;44.752;-0.374;2022-09-14T14:12:26;30.90;64.30
45693;DHT22;31402;44.752;-0.374;2022-09-14T14:14:59;30.70;66.90
45693;DHT22;31402;44.752;-0.374;2022-09-14T14:17:30;30.60;66.50
45693;DHT22;31402;44.752;-0.374;2022-09-14T14:25:37;30.30;69.60
45693;DHT22;31402;44.752;-0.374;2022-09-14T14:28:13;30.30;66.90
45693;DHT22;31402;44.752;-0.374;2022-09-14T14:30:40;30.30;63.70
45693;DHT22;31402;44.752;-0.374;2022-09-14T14:33:13;30.20;68.20
45693;DHT22;31402;44.752;-0.374;2022-09-14T14:35:40;30.20;67.50
45693;DHT22;31402;44.752;-0.374;2022-09-14T14:38:06;30.10;65.40
45693;DHT22;31402;44.752;-0.374;2022-09-14T14:40:32;30.10;67.80
45693;DHT22;31402;44.752;-0.374;2022-09-14T14:42:59;30.00;68.70
45693;DHT22;31402;44.752;-0.374;2022-09-14T14:45:27;30.00;65.00
45693;DHT22;31402;44.752;-0.374;2022-09-14T14:47:56;30.10;67.80
45693;DHT22;31402;44.752;-0.374;2022-09-14T14:50:29;30.20;67.40
45693;DHT22;31402;44.752;-0.374;2022-09-14T14:53:00;30.10;66.50
45693;DHT22;31402;44.752;-0.374;2022-09-14T14:55:27;30.10;72.60
45693;DHT22;31402;44.752;-0.374;2022-09-14T14:58:01;30.00;69.90
45693;DHT22;31402;44.752;-0.374;2022-09-14T15:00:30;29.80;68.00
45693;DHT22;31402;44.752;-0.374;2022-09-14T15:02:57;29.80;71.50
45693;DHT22;31402;44.752;-0.374;2022-09-14T15:05:24;29.90;69.30
45693;DHT22;31402;44.752;-0.374;2022-09-14T15:07:50;29.80;71.00
45693;DHT22;31402;44.752;-0.374;2022-09-14T15:10:21;29.90;71.10
45693;DHT22;31402;44.752;-0.374;2022-09-14T15:12:47;30.00;66.40
45693;DHT22;31402;44.752;-0.374;2022-09-14T15:15:22;30.10;67.70
45693;DHT22;31402;44.752;-0.374;2022-09-14T15:17:49;30.20;71.60
45693;DHT22;31402;44.752;-0.374;2022-09-14T15:20:15;30.20;65.60
45693;DHT22;31402;44.752;-0.374;2022-09-14T15:22:44;30.00;73.50
45693;DHT22;31402;44.752;-0.374;2022-09-14T15:25:11;30.00;68.90
45693;DHT22;31402;44.752;-0.374;2022-09-14T15:27:38;29.90;66.60
45693;DHT22;31402;44.752;-0.374;2022-09-14T15:30:05;29.90;70.60
45693;DHT22;31402;44.752;-0.374;2022-09-14T15:32:32;30.00;70.20
45693;DHT22;31402;44.752;-0.374;2022-09-14T15:34:58;30.20;65.90
45693;DHT22;31402;44.752;-0.374;2022-09-14T15:37:24;30.20;64.60
45693;DHT22;31402;44.752;-0.374;2022-09-14T15:39:50;30.20;63.40
45693;DHT22;31402;44.752;-0.374;2022-09-14T15:42:19;30.30;64.30
45693;DHT22;31402;44.752;-0.374;2022-09-14T15:44:45;30.40;63.50
45693;DHT22;31402;44.752;-0.374;2022-09-14T15:47:12;30.50;64.70
45693;DHT22;31402;44.752;-0.374;2022-09-14T15:49:39;30.50;64.60
45693;DHT22;31402;44.752;-0.374;2022-09-14T15:52:05;30.50;63.90
45693;DHT22;31402;44.752;-0.374;2022-09-14T15:54:33;30.40;63.60
45693;DHT22;31402;44.752;-0.374;2022-09-14T15:56:59;30.50;63.90
45693;DHT22;31402;44.752;-0.374;2022-09-14T15:59:26;30.50;62.80
45693;DHT22;31402;44.752;-0.374;2022-09-14T16:01:52;30.40;62.80
45693;DHT22;31402;44.752;-0.374;2022-09-14T16:04:18;30.40;63.20
45693;DHT22;31402;44.752;-0.374;2022-09-14T16:06:45;30.50;63.90
45693;DHT22;31402;44.752;-0.374;2022-09-14T16:09:13;30.50;63.50
45693;DHT22;31402;44.752;-0.374;2022-09-14T16:11:39;30.50;63.90
45693;DHT22;31402;44.752;-0.374;2022-09-14T16:14:06;30.60;63.80
45693;DHT22;31402;44.752;-0.374;2022-09-14T16:16:33;30.60;62.60
45693;DHT22;31402;44.752;-0.374;2022-09-14T16:19:11;30.60;63.00
45693;DHT22;31402;44.752;-0.374;2022-09-14T16:21:37;30.50;62.30
45693;DHT22;31402;44.752;-0.374;2022-09-14T16:24:06;30.50;63.40
45693;DHT22;31402;44.752;-0.374;2022-09-14T16:26:34;30.50;62.80
45693;DHT22;31402;44.752;-0.374;2022-09-14T16:29:00;30.50;63.80
45693;DHT22;31402;44.752;-0.374;2022-09-14T16:31:29;30.50;63.50
45693;DHT22;31402;44.752;-0.374;2022-09-14T16:33:58;30.50;63.20
45693;DHT22;31402;44.752;-0.374;2022-09-14T16:36:29;30.50;63.90
45693;DHT22;31402;44.752;-0.374;2022-09-14T16:38:57;30.40;63.40
45693;DHT22;31402;44.752;-0.374;2022-09-14T16:41:24;30.40;63.60
45693;DHT22;31402;44.752;-0.374;2022-09-14T16:43:57;30.30;64.30
45693;DHT22;31402;44.752;-0.374;2022-09-14T16:46:24;30.30;64.80
45693;DHT22;31402;44.752;-0.374;2022-09-14T16:48:50;30.20;65.70
45693;DHT22;31402;44.752;-0.374;2022-09-14T16:51:19;30.10;65.60
45693;DHT22;31402;44.752;-0.374;2022-09-14T16:53:46;30.00;66.00
45693;DHT22;31402;44.752;-0.374;2022-09-14T16:56:20;30.00;66.50
45693;DHT22;31402;44.752;-0.374;2022-09-14T16:58:48;29.80;66.50
45693;DHT22;31402;44.752;-0.374;2022-09-14T17:03:46;29.80;67.20
45693;DHT22;31402;44.752;-0.374;2022-09-14T17:06:15;29.70;66.60
45693;DHT22;31402;44.752;-0.374;2022-09-14T17:08:42;29.60;67.60
45693;DHT22;31402;44.752;-0.374;2022-09-14T17:11:08;29.60;67.30
45693;DHT22;31402;44.752;-0.374;2022-09-14T17:13:34;29.50;67.70
45693;DHT22;31402;44.752;-0.374;2022-09-14T17:16:03;29.50;67.90
45693;DHT22;31402;44.752;-0.374;2022-09-14T17:18:29;29.40;68.40
45693;DHT22;31402;44.752;-0.374;2022-09-14T17:21:04;29.40;68.30
45693;DHT22;31402;44.752;-0.374;2022-09-14T17:23:30;29.40;68.00
45693;DHT22;31402;44.752;-0.374;2022-09-14T17:25:56;29.40;68.30
45693;DHT22;31402;44.752;-0.374;2022-09-14T17:28:25;29.40;68.10
45693;DHT22;31402;44.752;-0.374;2022-09-14T17:30:52;29.30;68.10
45693;DHT22;31402;44.752;-0.374;2022-09-14T17:33:19;29.20;68.30
45693;DHT22;31402;44.752;-0.374;2022-09-14T17:35:50;29.30;68.30
45693;DHT22;31402;44.752;-0.374;2022-09-14T17:38:17;29.20;68.30
45693;DHT22;31402;44.752;-0.374;2022-09-14T17:40:43;29.10;68.60
45693;DHT22;31402;44.752;-0.374;2022-09-14T17:43:10;29.10;68.90
45693;DHT22;31402;44.752;-0.374;2022-09-14T17:45:37;28.90;69.20
45693;DHT22;31402;44.752;-0.374;2022-09-14T17:48:03;28.90;69.60
45693;DHT22;31402;44.752;-0.374;2022-09-14T17:50:30;28.90;69.90
45693;DHT22;31402;44.752;-0.374;2022-09-14T17:52:56;28.80;69.70
45693;DHT22;31402;44.752;-0.374;2022-09-14T17:55:22;28.80;69.60
45693;DHT22;31402;44.752;-0.374;2022-09-14T17:57:48;28.80;70.00
45693;DHT22;31402;44.752;-0.374;2022-09-14T18:00:14;28.70;70.40
45693;DHT22;31402;44.752;-0.374;2022-09-14T18:02:40;28.60;70.20
45693;DHT22;31402;44.752;-0.374;2022-09-14T18:05:06;28.60;70.20
45693;DHT22;31402;44.752;-0.374;2022-09-14T18:07:33;28.60;70.50